Flight Track Log - Related Links

Times and Time Zones

All times are in EDT time to prevent confusion due to time zone crossing. See the N63267 flight status page for this flight to view local times or setup timezone preferences in your user account.

Time Position Orientation Groundspeed Altitude Reporting Facility
EDT Latitude Longitude Course Direction KTS MPH feet Rate Location/Type
Mon 06:56:07 PM 42.3653 -98.4192 113° Southeast 135 155 5,900  Level Minneapolis Center
Mon 06:57:07 PM 42.3469 -98.3614 122° Southeast 135 155 6,100 250 Climbing Minneapolis Center
Mon 06:58:07 PM 42.3281 -98.3206 119° Southeast 130 150 6,400 400 Climbing Minneapolis Center
Mon 06:59:07 PM 42.3111 -98.2800 117° Southeast 130 150 6,900 450 Climbing Minneapolis Center
Mon 07:00:07 PM 42.2961 -98.2394 124° Southeast 125 144 7,300 400 Climbing Minneapolis Center
Mon 07:01:07 PM 42.2769 -98.2017 118° Southeast 125 144 7,700 353 Climbing Minneapolis Center
Mon 07:02:06 PM 42.2619 -98.1639 122° Southeast 125 144 8,000 350 Climbing Minneapolis Center
Mon 07:03:07 PM 42.2447 -98.1261 120° Southeast 120 138 8,400 347 Climbing Minneapolis Center
Mon 07:04:07 PM 42.2258 -98.0828 121° Southeast 125 144 8,700 250 Climbing Minneapolis Center
Mon 07:05:07 PM 42.2106 -98.0478 122° Southeast 125 144 8,900 150 Climbing Minneapolis Center
Mon 07:06:07 PM 42.1839 -97.9897 119° Southeast 131 151 9,000 50 Climbing Minneapolis Center
Mon 07:07:07 PM 42.1631 -97.9381 118° Southeast 143 165 9,000  Level Minneapolis Center
Mon 07:08:06 PM 42.1422 -97.8861 124° Southeast 156 180 9,000 50 Level Minneapolis Center
Mon 07:09:07 PM 42.1192 -97.8394 121° Southeast 162 186 9,100  Climbing Minneapolis Center
Mon 07:10:07 PM 42.0964 -97.7875 122° Southeast 162 186 9,000 -50 Descending Minneapolis Center
Mon 07:11:06 PM 42.0733 -97.7383 116° Southeast 162 186 9,000  Level Minneapolis Center
Mon 07:12:07 PM 42.0544 -97.6867 121° Southeast 157 181 9,000  Level Minneapolis Center
Mon 07:13:07 PM 42.0314 -97.6350 122° Southeast 151 174 9,000  Level Minneapolis Center
Mon 07:14:06 PM 42.0083 -97.5858 119° Southeast 151 174 9,000  Level Minneapolis Center
Mon 07:15:07 PM 41.9872 -97.5342 123° Southeast 151 174 9,000  Level Minneapolis Center
Mon 07:16:06 PM 41.9622 -97.4822 118° Southeast 151 174 9,000  Level Minneapolis Center
Mon 07:17:06 PM 41.9431 -97.4336 121° Southeast 151 174 9,000  Level Minneapolis Center
Mon 07:18:07 PM 41.9200 -97.3819 123° Southeast 151 174 9,000  Level Minneapolis Center
Mon 07:19:06 PM 41.8947 -97.3303 117° Southeast 156 180 9,000  Level Minneapolis Center
Mon 07:20:06 PM 41.8739 -97.2758 120° Southeast 156 180 9,000  Level Minneapolis Center
Mon 07:21:06 PM 41.8506 -97.2217 127° Southeast 161 185 9,000  Level Minneapolis Center
Mon 07:22:06 PM 41.8233 -97.1725 118° Southeast 161 185 9,000  Level Minneapolis Center
Mon 07:23:06 PM 41.8022 -97.1183 124° Southeast 167 192 9,000  Level Minneapolis Center
Mon 07:24:06 PM 41.7767 -97.0669 118° Southeast 167 192 9,000  Level Minneapolis Center
Mon 07:25:06 PM 41.7556 -97.0128 120° Southeast 167 192 9,000  Level Minneapolis Center
Mon 07:26:06 PM 41.7325 -96.9586 124° Southeast 167 192 9,000  Level Minneapolis Center
Mon 07:27:07 PM 41.7069 -96.9072 137° Southeast 167 192 9,000  Level Minneapolis Center
Mon 07:28:11 PM 41.6669 -96.8578 96° East 165 190 9,000  Level Minneapolis Center
Mon 07:29:07 PM 41.6625 -96.8019 119° Southeast 167 192 9,000  Level Minneapolis Center
Mon 07:30:06 PM 41.6392 -96.7453 123° Southeast 167 192 9,000  Level Minneapolis Center
Mon 07:31:06 PM 41.6156 -96.6967 134° Southeast 167 192 9,000  Level Minneapolis Center
Mon 07:32:14 PM 41.5756 -96.6419 105° East 162 186 9,000  Level Minneapolis Center
Mon 07:33:06 PM 41.5647 -96.5889 119° Southeast 167 192 9,000  Level Minneapolis Center
Mon 07:34:07 PM 41.5433 -96.5378 133° Southeast 172 198 9,000 51 Level Minneapolis Center
Mon 07:35:04 PM 41.5133 -96.4947 110° East 167 192 9,100 -50 Climbing Minneapolis Center
Mon 07:36:06 PM 41.4961 -96.4331 122° Southeast 172 198 8,900 -49 Descending Minneapolis Center
Mon 07:37:06 PM 41.4725 -96.3822 130° Southeast 172 198 9,000 48 Climbing Minneapolis Center
Mon 07:38:12 PM 41.4386 -96.3281 108° East 166 191 9,000  Level Minneapolis Center
Mon 07:39:06 PM 41.4256 -96.2747 124° Southeast 172 198 9,000  Level Minneapolis Center
Mon 07:40:07 PM 41.3997 -96.2239 120° Southeast 172 198 9,000  Level Minneapolis Center
Mon 07:41:06 PM 41.3761 -96.1703 121° Southeast 172 198 9,000  Level Minneapolis Center
Mon 07:42:06 PM 41.3506 -96.1142 123° Southeast 172 198 9,000  Level Minneapolis Center
Mon 07:43:06 PM 41.3247 -96.0606 121° Southeast 172 198 9,000  Level Minneapolis Center
Mon 07:44:28 PM 41.2911 -95.9872 120° Southeast 162 186 9,000  Level Minneapolis Center
Mon 07:45:34 PM 41.2694 -95.9369 119° Southeast 152 175 9,000  Level Minneapolis Center
Mon 07:46:35 PM 41.2497 -95.8892 114° Southeast 148 170 9,000  Level Minneapolis Center
Mon 07:47:36 PM 41.2339 -95.8417 126° Southeast 142 163 9,000  Level Minneapolis Center
Mon 07:48:24 PM 41.2119 -95.8022 120° Southeast 145 167 9,000  Level Minneapolis Center
Mon 07:49:25 PM 41.1922 -95.7575 125° Southeast 153 176 9,000  Level Minneapolis Center
Mon 07:50:20 PM 41.1681 -95.7125 119° Southeast 153 176 9,000  Level Minneapolis Center
Mon 07:51:39 PM 41.1422 -95.6511 121° Southeast 148 170 9,000  Level Minneapolis Center
Mon 07:52:39 PM 41.1203 -95.6033 118° Southeast 150 173 9,000  Level Minneapolis Center
Mon 07:53:40 PM 41.1006 -95.5533 121° Southeast 153 176 9,000  Level Minneapolis Center
Mon 07:54:40 PM 41.0786 -95.5058 123° Southeast 154 177 9,000  Level Minneapolis Center
Mon 07:55:31 PM 41.0567 -95.4611 128° Southeast 154 177 9,000  Level Minneapolis Center
Mon 07:56:31 PM 41.0322 -95.4192 123° Southeast 169 194 9,000  Level Minneapolis Center
Mon 07:57:30 PM 41.0103 -95.3744 122° Southeast 169 194 9,000  Level Minneapolis Center
Mon 07:58:30 PM 40.9883 -95.3272 122° Southeast 156 180 9,000  Level Minneapolis Center
Mon 07:59:30 PM 40.9661 -95.2797 121° Southeast 151 174 9,000  Level Minneapolis Center
Mon 08:00:30 PM 40.9461 -95.2353 121° Southeast 146 168 9,000  Level Minneapolis Center
Mon 08:01:31 PM 40.9261 -95.1908 125° Southeast 146 168 9,000  Level Minneapolis Center
Mon 08:02:30 PM 40.9039 -95.1492 121° Southeast 146 168 9,000  Level Minneapolis Center
Mon 08:03:30 PM 40.8836 -95.1047 121° Southeast 146 168 9,000 50 Level Minneapolis Center
Mon 08:04:30 PM 40.8636 -95.0606 122° Southeast 146 168 9,100  Climbing Minneapolis Center
Mon 08:05:30 PM 40.8414 -95.0133 124° Southeast 146 168 9,000 -50 Descending Minneapolis Center
Mon 08:06:30 PM 40.8169 -94.9661 119° Southeast 146 168 9,000  Level Minneapolis Center
Mon 08:07:30 PM 40.7969 -94.9192 125° Southeast 146 168 9,000  Level Minneapolis Center
Mon 08:08:30 PM 40.7725 -94.8722 121° Southeast 151 174 9,000  Level Minneapolis Center
Mon 08:09:30 PM 40.7503 -94.8225 122° Southeast 151 174 9,000  Level Minneapolis Center
Mon 08:10:31 PM 40.7281 -94.7753 124° Southeast 151 174 9,000  Level Minneapolis Center
Mon 08:11:30 PM 40.7058 -94.7311 124° Southeast 151 174 9,000  Level Minneapolis Center
Mon 08:12:30 PM 40.6814 -94.6842 127° Southeast 151 174 9,000  Level Minneapolis Center
Mon 08:13:30 PM 40.6547 -94.6372 128° Southeast 151 174 9,000  Level Minneapolis Center
Mon 08:14:30 PM 40.6283 -94.5931 125° Southeast 151 174 9,000  Level Minneapolis Center
Mon 08:15:31 PM 40.6039 -94.5464 125° Southeast 151 174 9,000  Level Minneapolis Center
Mon 08:16:31 PM 40.5833 -94.5078 105° East 151 174 9,000  Level Minneapolis Center
Mon 08:17:30 PM 40.5714 -94.4503 122° Southeast 151 174 9,000  Level Minneapolis Center
Mon 08:19:48 PM 40.5206 -94.3422 125° Southeast 144 166 9,000  Level Kansas City Center
Mon 08:20:48 PM 40.4975 -94.2986 123° Southeast 144 166 9,000  Level Kansas City Center
Mon 08:21:48 PM 40.4744 -94.2522 122° Southeast 144 166 9,000  Level Kansas City Center
Mon 08:22:48 PM 40.4536 -94.2089 122° Southeast 149 171 9,000  Level Kansas City Center
Mon 08:23:48 PM 40.4325 -94.1653 118° Southeast 149 171 9,000  Level Kansas City Center
Mon 08:24:48 PM 40.4136 -94.1192 118° Southeast 149 171 9,000  Level Kansas City Center
Mon 08:25:48 PM 40.3947 -94.0728 127° Southeast 144 166 9,000  Level Kansas City Center
Mon 08:26:48 PM 40.3697 -94.0294 125° Southeast 144 166 9,000 50 Level Kansas City Center
Mon 08:27:48 PM 40.3467 -93.9861 125° Southeast 150 173 9,100 50 Climbing Kansas City Center
Mon 08:28:48 PM 40.3233 -93.9428 122° Southeast 150 173 9,100  Level Kansas City Center
Mon 08:29:48 PM 40.3025 -93.8994 121° Southeast 150 173 9,100  Level Kansas City Center
Mon 08:30:48 PM 40.2814 -93.8533 123° Southeast 145 167 9,100 -50 Level Kansas City Center
Mon 08:31:48 PM 40.2603 -93.8100 121° Southeast 150 173 9,000 50 Descending Kansas City Center
Mon 08:32:48 PM 40.2392 -93.7639 128° Southeast 150 173 9,200  Climbing Kansas City Center
Mon 08:33:48 PM 40.2139 -93.7208 119° Southeast 150 173 9,000 -100 Descending Kansas City Center
Mon 08:34:48 PM 40.1947 -93.6747 124° Southeast 150 173 9,000  Level Kansas City Center
Mon 08:35:48 PM 40.1736 -93.6344 123° Southeast 150 173 9,000 -150 Level Kansas City Center
Mon 08:36:48 PM 40.1506 -93.5886 121° Southeast 150 173 8,700 -350 Descending Kansas City Center
Mon 08:37:48 PM 40.1292 -93.5428 126° Southeast 150 173 8,300 -400 Descending Kansas City Center
Mon 08:38:48 PM 40.1039 -93.4969 119° Southeast 150 173 7,900 -400 Descending Kansas City Center
Mon 08:39:48 PM 40.0825 -93.4456 123° Southeast 150 173 7,500 -400 Descending Kansas City Center
Mon 08:40:48 PM 40.0572 -93.3947 122° Southeast 155 178 7,100 -200 Descending Kansas City Center
Mon 08:41:48 PM 40.0339 -93.3461 120° Southeast 155 178 7,100 -50 Level Kansas City Center
Mon 08:42:48 PM 40.0147 -93.3031 128° Southeast 162 186 7,000 -50 Descending Kansas City Center
Mon 08:43:48 PM 39.9892 -93.2603 123° Southeast 156 180 7,000  Level Kansas City Center
Mon 08:44:48 PM 39.9678 -93.2172 124° Southeast 150 173 7,000  Level Kansas City Center
Mon 08:45:48 PM 39.9467 -93.1769 121° Southeast 145 167 7,000 50 Level Kansas City Center
Mon 08:46:48 PM 39.9253 -93.1314 122° Southeast 145 167 7,100 50 Climbing Kansas City Center
Mon 08:47:48 PM 39.9061 -93.0914 123° Southeast 145 167 7,100 -50 Level Kansas City Center
Mon 08:48:48 PM 39.8847 -93.0483 123° Southeast 145 167 7,000 -50 Descending Kansas City Center
Mon 08:49:48 PM 39.8633 -93.0056 127° Southeast 145 167 7,000  Level Kansas City Center
Mon 08:50:48 PM 39.8400 -92.9656 119° Southeast 145 167 7,000  Level Kansas City Center
Mon 08:51:48 PM 39.8228 -92.9256 121° Southeast 145 167 7,000 -100 Level Kansas City Center
Mon 08:52:48 PM 39.8014 -92.8800 128° Southeast 145 167 6,800 -350 Descending Kansas City Center
Mon 08:53:48 PM 39.7756 -92.8372 127° Southeast 150 173 6,300 -650 Descending Kansas City Center
Mon 08:54:48 PM 39.7458 -92.7867 121° Southeast 155 178 5,500 -650 Descending Kansas City Center
Mon 08:55:48 PM 39.7222 -92.7361 122° Southeast 155 178 5,000 -250 Descending Kansas City Center
Mon 08:56:48 PM 39.7006 -92.6908 119° Southeast 155 178 5,000  Level Kansas City Center
Mon 08:57:48 PM 39.6811 -92.6453 122° Southeast 149 171 5,000  Level Kansas City Center
Mon 08:58:48 PM 39.6597 -92.6003 125° Southeast 143 165 5,000  Level Kansas City Center
Mon 08:59:48 PM 39.6381 -92.5603 128° Southeast 143 165 5,000  Level Kansas City Center
Mon 09:00:48 PM 39.6144 -92.5206 122° Southeast 143 165 5,000  Level Kansas City Center
Mon 09:01:48 PM 39.5950 -92.4806 128° Southeast 143 165 5,000  Level Kansas City Center
Mon 09:02:48 PM 39.5714 -92.4408 121° Southeast 143 165 5,000  Level Kansas City Center
Mon 09:03:48 PM 39.5542 -92.4039 121° Southeast 143 165 5,000  Level Kansas City Center
Mon 09:04:48 PM 39.5347 -92.3614 122° Southeast 137 158 5,000  Level Kansas City Center
Mon 09:05:48 PM 39.5153 -92.3214 125° Southeast 137 158 5,000  Level Kansas City Center
Mon 09:06:48 PM 39.4936 -92.2819 121° Southeast 132 152 5,000  Level Kansas City Center
Mon 09:07:48 PM 39.4764 -92.2447 124° Southeast 132 152 5,000  Level Kansas City Center
Mon 09:08:48 PM 39.4547 -92.2025 121° Southeast 132 152 5,000  Level Kansas City Center
Mon 09:09:48 PM 39.4350 -92.1600 125° Southeast 132 152 5,000  Level Kansas City Center
Mon 09:10:48 PM 39.4133 -92.1203 124° Southeast 132 152 5,000  Level Kansas City Center
Mon 09:11:48 PM 39.3917 -92.0781 122° Southeast 132 152 5,000  Level Kansas City Center
Mon 09:12:48 PM 39.3700 -92.0333 123° Southeast 138 159 5,000 50 Level Kansas City Center
Mon 09:13:48 PM 39.3503 -91.9936 126° Southeast 138 159 5,100  Climbing Kansas City Center
Mon 09:14:48 PM 39.3267 -91.9517 126° Southeast 144 166 5,000 -50 Descending Kansas City Center
Mon 09:15:48 PM 39.3028 -91.9094 121° Southeast 149 171 5,000 -50 Level Kansas City Center
Mon 09:16:48 PM 39.2808 -91.8619 122° Southeast 149 171 4,900 -7 Descending Kansas City Center
Mon 09:29:20 PM 38.9917 -91.2661 125° Southeast 148 170 4,900  Level FAA TRACON SMA TRACON (SMA)
Mon 09:33:21 PM 38.8997 -91.0950 127° Southeast 143 165 4,900 -64 Level FAA TRACON SMA TRACON (SMA)
Mon 09:34:00 PM 38.8867 -91.0725 131° Southeast 147 169 4,600 -987 Descending FAA TRACON SMA TRACON (SMA)
Mon 09:34:40 PM 38.8653 -91.0406 134° Southeast 153 176 3,600 -1,500 Descending FAA TRACON SMA TRACON (SMA)
Mon 09:42:32 PM 38.7833 -90.9333 292° West  Level FlightAware Approximate
Mon 09:43:32 PM 38.7988 -90.9827 112° Southeast  Level Estimated
Mon 09:44:32 PM 38.7833 -90.9333 292° West  Level FlightAware Approximate
Mon 09:45:32 PM 38.7988 -90.9827 112° Southeast  Level Estimated
Mon 09:46:32 PM 38.7833 -90.9333 292° West  Level FlightAware Approximate
Mon 09:47:32 PM 38.7988 -90.9827 112° Southeast  Level Estimated
Mon 09:48:32 PM 38.7833 -90.9333 292° West  Level FlightAware Approximate
Mon 09:49:32 PM 38.7988 -90.9827 292° West  Level Estimated

Login

Don't have an account? Register now (free) for customized features, flight alerts, and more!